createdAt,value
2022-08-31T00:00:32.571Z,12.23
2022-08-31T00:03:56.753Z,12.17
2022-08-31T00:06:58.752Z,12.17
2022-08-31T00:10:03.743Z,12.21
2022-08-31T00:13:07.021Z,12.21
2022-08-31T00:16:12.559Z,12.18
2022-08-31T00:19:15.793Z,12.16
2022-08-31T00:22:17.690Z,12.12
2022-08-31T00:25:19.845Z,12.06
2022-08-31T00:28:21.958Z,11.98
2022-08-31T00:31:23.826Z,11.93
2022-08-31T00:34:28.044Z,11.89
2022-08-31T00:37:29.802Z,11.80
2022-08-31T00:40:32.576Z,11.68
2022-08-31T00:43:49.945Z,11.56
2022-08-31T00:46:51.785Z,11.33
2022-08-31T00:49:54.088Z,11.22
2022-08-31T00:52:59.855Z,11.17
2022-08-31T00:56:02.186Z,11.16
2022-08-31T00:59:04.090Z,11.15
2022-08-31T01:02:06.843Z,11.08
2022-08-31T01:05:10.794Z,11.04
2022-08-31T01:08:12.762Z,11.01
2022-08-31T01:11:15.264Z,11.06
2022-08-31T01:14:17.293Z,11.21
2022-08-31T01:17:21.241Z,11.25
2022-08-31T01:20:48.812Z,11.27
2022-08-31T01:23:52.461Z,11.31
2022-08-31T01:26:55.636Z,11.38
2022-08-31T01:30:03.109Z,11.37
2022-08-31T01:33:05.357Z,11.35
2022-08-31T01:36:11.037Z,11.29
2022-08-31T01:39:14.955Z,11.26
2022-08-31T01:42:19.505Z,11.13
2022-08-31T01:45:21.457Z,11.06
2022-08-31T01:48:23.672Z,11.00
2022-08-31T01:51:25.668Z,10.82
2022-08-31T01:54:27.813Z,10.65
2022-08-31T01:57:34.294Z,10.60
2022-08-31T02:00:36.743Z,10.59
2022-08-31T02:03:38.941Z,10.57
2022-08-31T02:06:43.159Z,10.56
2022-08-31T02:09:45.057Z,10.54
2022-08-31T02:12:46.986Z,10.50
2022-08-31T02:15:48.910Z,10.48
2022-08-31T02:18:51.250Z,10.52
2022-08-31T02:21:52.947Z,10.54
2022-08-31T02:24:54.680Z,10.49
2022-08-31T02:27:56.573Z,10.43
2022-08-31T02:30:58.371Z,10.36
2022-08-31T02:34:00.677Z,10.24
2022-08-31T02:37:02.440Z,10.13
2022-08-31T02:40:08.968Z,10.03
2022-08-31T02:43:24.460Z,9.97
2022-08-31T02:46:26.898Z,9.95
2022-08-31T02:49:28.894Z,9.94
2022-08-31T02:52:30.596Z,9.91
2022-08-31T02:55:32.318Z,9.91
2022-08-31T02:58:35.531Z,9.90
2022-08-31T03:01:37.391Z,9.93
2022-08-31T03:04:39.898Z,9.93
2022-08-31T03:07:42.358Z,9.89
2022-08-31T03:10:44.197Z,9.84
2022-08-31T03:13:45.953Z,9.77
2022-08-31T03:16:47.676Z,9.75
2022-08-31T03:20:01.114Z,9.72
2022-08-31T03:23:03.613Z,9.70
2022-08-31T03:26:06.533Z,9.69
2022-08-31T03:29:08.382Z,9.67
2022-08-31T03:32:10.260Z,9.67
2022-08-31T03:35:12.798Z,9.70
2022-08-31T03:38:16.156Z,9.72
2022-08-31T03:41:22.720Z,9.71
2022-08-31T03:44:24.589Z,9.72
2022-08-31T03:47:28.316Z,9.70
2022-08-31T03:50:30.370Z,9.69
2022-08-31T03:53:32.105Z,9.69
2022-08-31T03:56:33.968Z,9.69
2022-08-31T03:59:35.742Z,9.68
2022-08-31T04:02:39.779Z,9.65
2022-08-31T04:05:44.260Z,9.65
2022-08-31T04:08:46.310Z,9.64
2022-08-31T04:11:48.003Z,9.65
2022-08-31T04:14:49.797Z,9.66
2022-08-31T04:17:52.207Z,9.66
2022-08-31T04:20:59.261Z,9.63
2022-08-31T04:24:02.187Z,9.61
2022-08-31T04:27:04.133Z,9.63
2022-08-31T04:30:07.746Z,9.64
2022-08-31T04:33:09.844Z,9.67
2022-08-31T04:36:14.085Z,9.68
2022-08-31T04:39:15.892Z,9.71
2022-08-31T04:42:18.466Z,9.81
2022-08-31T04:45:20.321Z,9.92
2022-08-31T04:48:22.064Z,10.06
2022-08-31T04:51:26.911Z,10.20
2022-08-31T04:54:29.630Z,10.34
2022-08-31T04:57:36.931Z,10.50
2022-08-31T05:00:38.743Z,10.65
2022-08-31T05:03:41.937Z,10.75
2022-08-31T05:06:46.153Z,10.90
2022-08-31T05:09:47.849Z,11.09
2022-08-31T05:12:51.876Z,11.24
2022-08-31T05:15:55.540Z,11.39
2022-08-31T05:18:58.957Z,11.56
2022-08-31T05:22:00.735Z,11.73
2022-08-31T05:25:02.453Z,11.91
2022-08-31T05:28:05.261Z,12.07
2022-08-31T05:31:07.029Z,12.23
2022-08-31T05:34:09.238Z,12.38
2022-08-31T05:37:10.940Z,12.57
2022-08-31T05:40:13.207Z,12.81
2022-08-31T05:43:14.987Z,13.12
2022-08-31T05:46:17.297Z,13.33
2022-08-31T05:49:19.210Z,13.48
2022-08-31T05:52:25.312Z,13.65
2022-08-31T05:55:27.247Z,13.79
2022-08-31T05:58:30.480Z,14.00
2022-08-31T06:01:34.773Z,14.14
2022-08-31T06:04:36.526Z,14.26
2022-08-31T06:07:38.214Z,14.41
2022-08-31T06:10:40.053Z,14.53
2022-08-31T06:13:42.328Z,14.61
2022-08-31T06:16:45.317Z,14.76
2022-08-31T06:19:47.090Z,14.94
2022-08-31T06:22:48.943Z,15.12
2022-08-31T06:25:50.811Z,15.24
2022-08-31T06:28:54.534Z,15.27
2022-08-31T06:31:56.584Z,15.29
2022-08-31T06:34:58.327Z,15.40
2022-08-31T06:38:00.121Z,15.57
2022-08-31T06:41:01.842Z,15.69
2022-08-31T06:44:06.077Z,15.85
2022-08-31T06:47:07.827Z,15.97
2022-08-31T06:50:09.952Z,16.10
2022-08-31T06:53:11.805Z,16.22
2022-08-31T06:56:20.975Z,16.36
2022-08-31T06:59:28.249Z,16.50
2022-08-31T07:02:30.917Z,16.58
2022-08-31T07:05:32.713Z,16.63
2022-08-31T07:08:35.530Z,16.72
2022-08-31T07:11:44.622Z,16.90
2022-08-31T07:14:50.161Z,17.18
2022-08-31T07:17:56.790Z,17.52
2022-08-31T07:21:09.663Z,18.05
2022-08-31T07:24:13.331Z,18.85
2022-08-31T07:27:18.384Z,19.44
2022-08-31T07:30:20.409Z,19.63
2022-08-31T07:33:22.266Z,19.74
2022-08-31T07:36:26.047Z,19.81
2022-08-31T07:39:47.571Z,19.88
2022-08-31T07:42:50.151Z,19.87
2022-08-31T07:45:52.233Z,19.92
2022-08-31T07:48:54.154Z,20.01
2022-08-31T07:51:56.039Z,20.12
2022-08-31T07:55:09.486Z,20.29
2022-08-31T07:58:13.661Z,20.30
2022-08-31T08:01:16.382Z,20.40
2022-08-31T08:04:27.327Z,20.60
2022-08-31T08:07:34.013Z,20.63
2022-08-31T08:10:40.842Z,20.48
2022-08-31T08:13:43.302Z,20.37
2022-08-31T08:16:45.164Z,20.25
2022-08-31T08:19:47.169Z,20.30
2022-08-31T08:22:54.123Z,20.78
2022-08-31T08:26:01.381Z,21.12
2022-08-31T08:29:06.950Z,21.12
2022-08-31T08:32:13.165Z,21.09
2022-08-31T08:35:17.533Z,20.92
2022-08-31T08:38:19.743Z,20.53
2022-08-31T08:41:28.371Z,20.55
2022-08-31T08:44:32.965Z,20.59
2022-08-31T08:47:37.719Z,20.57
2022-08-31T08:50:42.104Z,20.75
2022-08-31T08:53:46.177Z,20.94
2022-08-31T08:56:49.023Z,21.13
2022-08-31T08:59:53.754Z,21.23
2022-08-31T09:03:01.262Z,21.28
2022-08-31T09:06:15.858Z,21.33
2022-08-31T09:09:29.608Z,21.37
2022-08-31T09:12:44.658Z,21.19
2022-08-31T09:16:09.585Z,20.88
2022-08-31T09:19:15.573Z,20.72
2022-08-31T09:22:17.202Z,20.61
2022-08-31T09:25:33.511Z,20.68
2022-08-31T09:28:48.585Z,20.84
2022-08-31T09:32:07.272Z,20.79
2022-08-31T09:35:23.977Z,20.93
2022-08-31T09:38:37.026Z,21.34
2022-08-31T09:41:38.838Z,21.82
2022-08-31T09:44:41.688Z,22.08
2022-08-31T09:47:52.931Z,21.84
2022-08-31T09:51:01.212Z,22.16
2022-08-31T09:54:33.832Z,22.52
2022-08-31T09:58:10.395Z,22.89
2022-08-31T10:01:18.085Z,23.24
2022-08-31T10:04:28.678Z,23.41
2022-08-31T10:07:30.264Z,22.97
2022-08-31T10:10:35.907Z,23.03
2022-08-31T10:13:46.898Z,23.40
2022-08-31T10:17:01.149Z,23.51
2022-08-31T10:20:08.062Z,23.57
2022-08-31T10:23:35.021Z,23.63
2022-08-31T10:26:40.828Z,23.46
2022-08-31T10:29:46.193Z,23.64
2022-08-31T10:33:05.122Z,23.67
2022-08-31T10:36:08.192Z,24.18
2022-08-31T10:39:27.589Z,24.77
2022-08-31T10:42:37.740Z,25.19
2022-08-31T10:45:43.980Z,25.45
2022-08-31T10:48:51.979Z,25.52
2022-08-31T10:52:05.374Z,26.02
2022-08-31T10:55:07.614Z,25.64
2022-08-31T10:58:36.155Z,25.60
2022-08-31T11:01:50.737Z,24.88
2022-08-31T11:05:06.465Z,24.99
2022-08-31T11:08:49.984Z,25.26
2022-08-31T11:12:07.343Z,25.98
2022-08-31T11:15:32.697Z,25.97
2022-08-31T11:19:11.660Z,26.40
2022-08-31T11:22:19.369Z,26.99
2022-08-31T11:25:48.432Z,27.42
2022-08-31T11:28:56.536Z,27.44
2022-08-31T11:32:11.341Z,27.54
2022-08-31T11:35:15.600Z,27.60
2022-08-31T11:38:56.547Z,27.22
2022-08-31T11:41:59.329Z,27.47
2022-08-31T11:45:03.165Z,27.41
2022-08-31T11:48:07.245Z,26.92
2022-08-31T11:51:09.254Z,26.73
2022-08-31T11:54:15.234Z,26.41
2022-08-31T11:57:24.813Z,26.72
2022-08-31T12:00:42.431Z,26.49
2022-08-31T12:04:03.548Z,26.40
2022-08-31T12:07:05.780Z,26.38
2022-08-31T12:10:07.716Z,26.33
2022-08-31T12:13:19.160Z,26.37
2022-08-31T12:16:25.176Z,26.71
2022-08-31T12:20:01.295Z,26.54
2022-08-31T12:23:37.832Z,26.40
2022-08-31T12:27:04.804Z,25.83
2022-08-31T12:30:19.233Z,25.58
2022-08-31T12:33:24.254Z,25.32
2022-08-31T12:36:29.538Z,25.08
2022-08-31T12:39:32.145Z,25.22
2022-08-31T12:42:40.318Z,24.89
2022-08-31T12:46:16.614Z,24.08
2022-08-31T12:49:47.721Z,23.70
2022-08-31T12:53:04.474Z,23.56
2022-08-31T12:56:40.938Z,23.39
2022-08-31T13:00:02.227Z,23.58
2022-08-31T13:03:24.516Z,23.72
2022-08-31T13:06:30.481Z,23.48
2022-08-31T13:09:35.738Z,23.34
2022-08-31T13:12:38.046Z,23.25
2022-08-31T13:15:42.722Z,23.09
2022-08-31T13:18:46.322Z,22.99
2022-08-31T13:22:01.070Z,22.94
2022-08-31T13:25:35.798Z,23.03
2022-08-31T13:28:37.673Z,23.16
2022-08-31T13:31:50.996Z,23.22
2022-08-31T13:34:55.181Z,23.51
2022-08-31T13:38:05.617Z,23.79
2022-08-31T13:41:37.366Z,24.03
2022-08-31T13:44:44.127Z,24.01
2022-08-31T13:47:57.760Z,24.11
2022-08-31T13:51:13.559Z,24.16
2022-08-31T13:54:30.658Z,23.97
2022-08-31T13:57:36.058Z,23.71
2022-08-31T14:00:41.332Z,23.41
2022-08-31T14:03:49.621Z,23.13
2022-08-31T14:06:52.379Z,22.86
2022-08-31T14:10:03.249Z,22.65
2022-08-31T14:13:18.474Z,22.46
2022-08-31T14:16:30.660Z,22.30
2022-08-31T14:19:38.988Z,22.14
2022-08-31T14:22:45.697Z,22.03
2022-08-31T14:25:47.454Z,21.96
2022-08-31T14:28:53.391Z,21.92
2022-08-31T14:31:56.411Z,21.90
2022-08-31T14:34:59.227Z,21.88
2022-08-31T14:38:01.108Z,21.70
2022-08-31T14:41:02.827Z,21.47
2022-08-31T14:44:09.502Z,21.36
2022-08-31T14:47:12.405Z,21.32
2022-08-31T14:50:18.453Z,21.40
2022-08-31T14:53:21.027Z,21.45
2022-08-31T14:56:27.234Z,21.37
2022-08-31T14:59:29.551Z,21.34
2022-08-31T15:02:33.751Z,21.34
2022-08-31T15:05:39.317Z,21.34
2022-08-31T15:08:41.696Z,21.32
2022-08-31T15:11:43.788Z,21.27
2022-08-31T15:14:47.355Z,21.22
2022-08-31T15:17:51.776Z,21.09
2022-08-31T15:20:53.965Z,21.00
2022-08-31T15:23:55.981Z,20.94
2022-08-31T15:26:58.468Z,20.97
2022-08-31T15:30:04.547Z,21.02
2022-08-31T15:33:08.458Z,21.09
2022-08-31T15:36:12.570Z,21.09
2022-08-31T15:39:14.801Z,21.09
2022-08-31T15:42:20.778Z,21.00
2022-08-31T15:45:23.509Z,20.88
2022-08-31T15:48:46.020Z,20.72
2022-08-31T15:51:51.422Z,20.60
2022-08-31T15:54:54.449Z,20.59
2022-08-31T15:57:58.946Z,20.57
2022-08-31T16:01:01.624Z,20.55
2022-08-31T16:04:07.990Z,20.48
2022-08-31T16:07:11.334Z,20.38
2022-08-31T16:10:19.353Z,20.30
2022-08-31T16:13:22.136Z,20.22
2022-08-31T16:16:26.921Z,20.13
2022-08-31T16:19:35.847Z,20.02
2022-08-31T16:22:38.936Z,19.91
2022-08-31T16:25:47.946Z,19.81
2022-08-31T16:28:50.894Z,19.73
2022-08-31T16:31:53.072Z,19.65
2022-08-31T16:34:54.889Z,19.56
2022-08-31T16:37:56.654Z,19.48
2022-08-31T16:41:06.368Z,19.41
2022-08-31T16:44:19.606Z,19.34
2022-08-31T16:47:21.895Z,19.26
2022-08-31T16:50:23.553Z,19.19
2022-08-31T16:53:25.983Z,19.13
2022-08-31T16:56:30.009Z,19.06
2022-08-31T16:59:31.832Z,18.98
2022-08-31T17:02:33.643Z,18.88
2022-08-31T17:05:35.541Z,18.80
2022-08-31T17:08:41.414Z,18.71
2022-08-31T17:11:47.605Z,18.62
2022-08-31T17:14:52.522Z,18.51
2022-08-31T17:17:55.317Z,18.42
2022-08-31T17:20:57.442Z,18.31
2022-08-31T17:24:03.389Z,18.19
2022-08-31T17:27:09.640Z,18.09
2022-08-31T17:30:11.640Z,17.96
2022-08-31T17:33:14.272Z,17.84
2022-08-31T17:36:20.170Z,17.76
2022-08-31T17:39:24.341Z,17.68
2022-08-31T17:42:27.204Z,17.60
2022-08-31T17:45:29.148Z,17.55
2022-08-31T17:48:30.777Z,17.47
2022-08-31T17:51:34.687Z,17.40
2022-08-31T17:54:42.833Z,17.32
2022-08-31T17:57:46.045Z,17.22
2022-08-31T18:00:49.706Z,17.13
2022-08-31T18:03:51.639Z,17.03
2022-08-31T18:06:55.224Z,16.94
2022-08-31T18:09:57.292Z,16.83
2022-08-31T18:13:02.625Z,16.73
2022-08-31T18:16:08.139Z,16.65
2022-08-31T18:19:10.807Z,16.57
2022-08-31T18:22:14.457Z,16.47
2022-08-31T18:25:16.353Z,16.39
2022-08-31T18:28:18.423Z,16.30
2022-08-31T18:31:27.890Z,16.21
2022-08-31T18:34:33.145Z,16.13
2022-08-31T18:37:34.979Z,16.05
2022-08-31T18:40:57.122Z,15.96
2022-08-31T18:44:17.779Z,15.85
2022-08-31T18:47:21.261Z,15.73
2022-08-31T18:50:24.255Z,15.61
2022-08-31T18:53:28.458Z,15.52
2022-08-31T18:56:33.029Z,15.43
2022-08-31T18:59:34.954Z,15.35
2022-08-31T19:02:40.546Z,15.28
2022-08-31T19:05:42.220Z,15.20
2022-08-31T19:08:45.656Z,15.08
2022-08-31T19:11:51.797Z,14.96
2022-08-31T19:14:55.444Z,14.88
2022-08-31T19:17:57.581Z,14.77
2022-08-31T19:20:59.330Z,14.67
2022-08-31T19:24:03.303Z,14.49
2022-08-31T19:27:07.969Z,14.31
2022-08-31T19:30:12.191Z,14.10
2022-08-31T19:33:13.874Z,13.98
2022-08-31T19:36:15.696Z,13.94
2022-08-31T19:39:22.221Z,13.91
2022-08-31T19:42:40.195Z,13.87
2022-08-31T19:45:43.654Z,13.82
2022-08-31T19:48:49.622Z,13.77
2022-08-31T19:51:58.199Z,13.72
2022-08-31T19:55:09.067Z,13.70
2022-08-31T19:58:11.253Z,13.63
2022-08-31T20:01:13.195Z,13.55
2022-08-31T20:04:17.144Z,13.53
2022-08-31T20:07:19.216Z,13.51
2022-08-31T20:10:21.067Z,13.50
2022-08-31T20:13:27.789Z,13.48
2022-08-31T20:16:33.607Z,13.42
2022-08-31T20:19:38.058Z,13.38
2022-08-31T20:22:40.571Z,13.32
2022-08-31T20:25:44.203Z,13.27
2022-08-31T20:28:46.858Z,13.19
2022-08-31T20:31:51.414Z,13.12
2022-08-31T20:34:55.866Z,13.03
2022-08-31T20:37:57.688Z,12.97
2022-08-31T20:41:03.507Z,12.94
2022-08-31T20:44:12.214Z,12.88
2022-08-31T20:47:32.402Z,12.81
2022-08-31T20:50:35.914Z,12.75
2022-08-31T20:53:43.403Z,12.71
2022-08-31T20:56:46.272Z,12.69
2022-08-31T20:59:50.874Z,12.66
2022-08-31T21:02:52.677Z,12.64
2022-08-31T21:05:55.039Z,12.62
2022-08-31T21:08:56.867Z,12.57
2022-08-31T21:11:59.192Z,12.50
2022-08-31T21:15:00.909Z,12.42
2022-08-31T21:18:02.584Z,12.36
2022-08-31T21:21:09.220Z,12.34
2022-08-31T21:24:12.769Z,12.34
2022-08-31T21:27:17.012Z,12.37
2022-08-31T21:30:18.951Z,12.38
2022-08-31T21:33:20.918Z,12.32
2022-08-31T21:36:23.694Z,12.19
2022-08-31T21:39:25.495Z,12.13
2022-08-31T21:42:27.362Z,12.14
2022-08-31T21:45:29.585Z,12.17
2022-08-31T21:48:33.957Z,12.18
2022-08-31T21:51:42.201Z,12.20
2022-08-31T21:54:46.139Z,12.24
2022-08-31T21:57:48.056Z,12.27
2022-08-31T22:00:50.188Z,12.28
2022-08-31T22:03:57.594Z,12.27
2022-08-31T22:07:01.581Z,12.24
2022-08-31T22:10:03.697Z,12.19
2022-08-31T22:13:05.800Z,12.17
2022-08-31T22:16:14.089Z,12.18
2022-08-31T22:19:21.955Z,12.14
2022-08-31T22:22:23.826Z,12.07
2022-08-31T22:25:25.784Z,12.01
2022-08-31T22:28:27.794Z,11.97
2022-08-31T22:31:29.857Z,11.97
2022-08-31T22:34:31.631Z,11.98
2022-08-31T22:37:35.285Z,11.98
2022-08-31T22:40:39.024Z,11.97
2022-08-31T22:43:42.018Z,11.97
2022-08-31T22:46:44.017Z,11.94
2022-08-31T22:49:45.704Z,11.90
2022-08-31T22:52:47.499Z,11.83
2022-08-31T22:55:49.206Z,11.76
2022-08-31T22:58:51.263Z,11.73
2022-08-31T23:02:03.524Z,11.70
2022-08-31T23:05:25.882Z,11.65
2022-08-31T23:08:28.139Z,11.58
2022-08-31T23:11:30.084Z,11.53
2022-08-31T23:14:32.843Z,11.49
2022-08-31T23:17:34.928Z,11.45
2022-08-31T23:20:38.590Z,11.37
2022-08-31T23:23:40.823Z,11.32
2022-08-31T23:26:44.564Z,11.30
2022-08-31T23:29:52.544Z,11.27
2022-08-31T23:32:54.402Z,11.25
2022-08-31T23:35:56.215Z,11.23
2022-08-31T23:39:03.313Z,11.18
2022-08-31T23:42:06.594Z,11.14
2022-08-31T23:45:10.193Z,11.11
2022-08-31T23:48:12.782Z,11.11
2022-08-31T23:51:15.804Z,11.11
2022-08-31T23:54:18.371Z,11.11
2022-08-31T23:57:31.399Z,11.05
